sensor_id;sensor_type;location;lat;lon;timestamp;temperature;humidity
26589;DHT22;14235;48.532;8.722;2023-04-15T00:00:36;5.60;99.10
26589;DHT22;14235;48.532;8.722;2023-04-15T00:03:02;5.50;97.50
26589;DHT22;14235;48.532;8.722;2023-04-15T00:05:31;5.50;97.00
26589;DHT22;14235;48.532;8.722;2023-04-15T00:07:57;5.40;98.60
26589;DHT22;14235;48.532;8.722;2023-04-15T00:10:24;5.40;96.90
26589;DHT22;14235;48.532;8.722;2023-04-15T00:12:50;5.40;97.30
26589;DHT22;14235;48.532;8.722;2023-04-15T00:15:16;5.40;97.70
26589;DHT22;14235;48.532;8.722;2023-04-15T00:17:42;5.30;99.10
26589;DHT22;14235;48.532;8.722;2023-04-15T00:20:08;5.20;98.60
26589;DHT22;14235;48.532;8.722;2023-04-15T00:22:33;5.20;97.90
26589;DHT22;14235;48.532;8.722;2023-04-15T00:24:59;5.20;99.80
26589;DHT22;14235;48.532;8.722;2023-04-15T00:27:25;5.20;99.90
26589;DHT22;14235;48.532;8.722;2023-04-15T00:29:50;5.10;97.80
26589;DHT22;14235;48.532;8.722;2023-04-15T00:32:16;5.10;96.70
26589;DHT22;14235;48.532;8.722;2023-04-15T00:34:42;5.10;96.20
26589;DHT22;14235;48.532;8.722;2023-04-15T00:37:08;5.10;96.20
26589;DHT22;14235;48.532;8.722;2023-04-15T00:39:34;5.10;95.60
26589;DHT22;14235;48.532;8.722;2023-04-15T00:42:01;5.00;95.50
26589;DHT22;14235;48.532;8.722;2023-04-15T00:44:26;5.00;96.00
26589;DHT22;14235;48.532;8.722;2023-04-15T00:46:53;5.00;95.70
26589;DHT22;14235;48.532;8.722;2023-04-15T00:49:18;4.90;96.10
26589;DHT22;14235;48.532;8.722;2023-04-15T00:51:44;4.80;95.40
26589;DHT22;14235;48.532;8.722;2023-04-15T00:54:10;4.80;95.70
26589;DHT22;14235;48.532;8.722;2023-04-15T00:56:37;4.90;95.90
26589;DHT22;14235;48.532;8.722;2023-04-15T00:59:04;4.80;96.60
26589;DHT22;14235;48.532;8.722;2023-04-15T01:01:34;4.80;96.50
26589;DHT22;14235;48.532;8.722;2023-04-15T01:04:01;4.80;96.00
26589;DHT22;14235;48.532;8.722;2023-04-15T01:06:27;4.70;96.00
26589;DHT22;14235;48.532;8.722;2023-04-15T01:08:54;4.70;96.90
26589;DHT22;14235;48.532;8.722;2023-04-15T01:11:20;4.70;98.30
26589;DHT22;14235;48.532;8.722;2023-04-15T01:13:46;4.70;96.10
26589;DHT22;14235;48.532;8.722;2023-04-15T01:16:13;4.70;96.00
26589;DHT22;14235;48.532;8.722;2023-04-15T01:18:39;4.70;95.30
26589;DHT22;14235;48.532;8.722;2023-04-15T01:21:05;4.70;94.90
26589;DHT22;14235;48.532;8.722;2023-04-15T01:23:31;4.70;95.20
26589;DHT22;14235;48.532;8.722;2023-04-15T01:25:58;4.50;95.50
26589;DHT22;14235;48.532;8.722;2023-04-15T01:28:24;4.70;96.70
26589;DHT22;14235;48.532;8.722;2023-04-15T01:31:13;4.50;95.10
26589;DHT22;14235;48.532;8.722;2023-04-15T01:33:40;4.50;95.90
26589;DHT22;14235;48.532;8.722;2023-04-15T01:36:07;4.50;95.10
26589;DHT22;14235;48.532;8.722;2023-04-15T01:38:35;4.50;95.30
26589;DHT22;14235;48.532;8.722;2023-04-15T01:41:01;4.50;96.10
26589;DHT22;14235;48.532;8.722;2023-04-15T01:43:28;4.50;95.80
26589;DHT22;14235;48.532;8.722;2023-04-15T01:45:54;4.40;95.20
26589;DHT22;14235;48.532;8.722;2023-04-15T01:48:21;4.50;93.90
26589;DHT22;14235;48.532;8.722;2023-04-15T01:50:46;4.30;94.40
26589;DHT22;14235;48.532;8.722;2023-04-15T01:53:12;4.30;95.50
26589;DHT22;14235;48.532;8.722;2023-04-15T01:55:37;4.30;95.20
26589;DHT22;14235;48.532;8.722;2023-04-15T01:58:03;4.30;95.20
26589;DHT22;14235;48.532;8.722;2023-04-15T02:00:29;4.30;95.30
26589;DHT22;14235;48.532;8.722;2023-04-15T02:02:57;4.50;94.60
26589;DHT22;14235;48.532;8.722;2023-04-15T02:05:23;4.30;94.40
26589;DHT22;14235;48.532;8.722;2023-04-15T02:07:49;4.30;94.00
26589;DHT22;14235;48.532;8.722;2023-04-15T02:10:15;4.20;94.10
26589;DHT22;14235;48.532;8.722;2023-04-15T02:12:41;4.10;94.20
26589;DHT22;14235;48.532;8.722;2023-04-15T02:15:07;4.00;94.70
26589;DHT22;14235;48.532;8.722;2023-04-15T02:17:34;4.10;95.20
26589;DHT22;14235;48.532;8.722;2023-04-15T02:20:00;4.00;95.90
26589;DHT22;14235;48.532;8.722;2023-04-15T02:22:26;4.00;94.80
26589;DHT22;14235;48.532;8.722;2023-04-15T02:24:52;4.00;95.10
26589;DHT22;14235;48.532;8.722;2023-04-15T02:29:44;4.00;84.70
26589;DHT22;14235;48.532;8.722;2023-04-15T02:32:13;4.00;86.60
26589;DHT22;14235;48.532;8.722;2023-04-15T02:34:39;4.00;86.20
26589;DHT22;14235;48.532;8.722;2023-04-15T02:37:07;3.90;86.30
26589;DHT22;14235;48.532;8.722;2023-04-15T02:39:33;3.80;87.00
26589;DHT22;14235;48.532;8.722;2023-04-15T02:41:58;3.80;87.30
26589;DHT22;14235;48.532;8.722;2023-04-15T02:44:25;3.80;87.20
26589;DHT22;14235;48.532;8.722;2023-04-15T02:46:51;3.80;87.40
26589;DHT22;14235;48.532;8.722;2023-04-15T02:49:19;3.90;86.90
26589;DHT22;14235;48.532;8.722;2023-04-15T02:51:45;3.90;86.30
26589;DHT22;14235;48.532;8.722;2023-04-15T02:54:21;3.90;86.40
26589;DHT22;14235;48.532;8.722;2023-04-15T02:56:50;3.90;86.60
26589;DHT22;14235;48.532;8.722;2023-04-15T02:59:16;3.80;86.40
26589;DHT22;14235;48.532;8.722;2023-04-15T03:01:42;3.90;87.00
26589;DHT22;14235;48.532;8.722;2023-04-15T03:04:08;3.80;86.20
26589;DHT22;14235;48.532;8.722;2023-04-15T03:06:34;3.70;86.30
26589;DHT22;14235;48.532;8.722;2023-04-15T03:08:59;3.60;87.70
26589;DHT22;14235;48.532;8.722;2023-04-15T03:11:27;3.40;88.10
26589;DHT22;14235;48.532;8.722;2023-04-15T03:13:53;3.50;88.80
26589;DHT22;14235;48.532;8.722;2023-04-15T03:16:19;3.50;89.40
26589;DHT22;14235;48.532;8.722;2023-04-15T03:18:45;3.60;89.20
26589;DHT22;14235;48.532;8.722;2023-04-15T03:21:10;3.60;89.20
26589;DHT22;14235;48.532;8.722;2023-04-15T03:23:36;3.60;88.70
26589;DHT22;14235;48.532;8.722;2023-04-15T03:26:02;3.60;88.20
26589;DHT22;14235;48.532;8.722;2023-04-15T03:28:27;3.60;87.50
26589;DHT22;14235;48.532;8.722;2023-04-15T03:30:54;3.90;88.40
26589;DHT22;14235;48.532;8.722;2023-04-15T03:33:20;3.60;87.90
26589;DHT22;14235;48.532;8.722;2023-04-15T03:35:45;3.70;87.90
26589;DHT22;14235;48.532;8.722;2023-04-15T03:38:11;3.70;87.70
26589;DHT22;14235;48.532;8.722;2023-04-15T03:40:39;3.60;87.80
26589;DHT22;14235;48.532;8.722;2023-04-15T03:43:05;3.60;87.80
26589;DHT22;14235;48.532;8.722;2023-04-15T03:45:31;3.50;88.60
26589;DHT22;14235;48.532;8.722;2023-04-15T03:47:56;3.50;88.60
26589;DHT22;14235;48.532;8.722;2023-04-15T03:50:22;3.50;88.00
26589;DHT22;14235;48.532;8.722;2023-04-15T03:52:47;3.50;87.80
26589;DHT22;14235;48.532;8.722;2023-04-15T03:55:13;3.50;88.00
26589;DHT22;14235;48.532;8.722;2023-04-15T03:57:39;3.50;88.00
26589;DHT22;14235;48.532;8.722;2023-04-15T04:00:07;3.50;88.90
26589;DHT22;14235;48.532;8.722;2023-04-15T04:02:36;3.40;88.00
26589;DHT22;14235;48.532;8.722;2023-04-15T04:05:02;3.40;89.30
26589;DHT22;14235;48.532;8.722;2023-04-15T04:07:27;3.30;88.30
26589;DHT22;14235;48.532;8.722;2023-04-15T04:09:53;3.30;88.90
26589;DHT22;14235;48.532;8.722;2023-04-15T04:12:18;3.40;88.80
26589;DHT22;14235;48.532;8.722;2023-04-15T04:14:44;3.40;88.50
26589;DHT22;14235;48.532;8.722;2023-04-15T04:17:10;3.30;87.40
26589;DHT22;14235;48.532;8.722;2023-04-15T04:19:36;3.30;88.10
26589;DHT22;14235;48.532;8.722;2023-04-15T04:22:01;3.30;88.00
26589;DHT22;14235;48.532;8.722;2023-04-15T04:24:27;3.20;88.10
26589;DHT22;14235;48.532;8.722;2023-04-15T04:26:52;3.20;88.70
26589;DHT22;14235;48.532;8.722;2023-04-15T04:29:18;3.20;89.10
26589;DHT22;14235;48.532;8.722;2023-04-15T04:31:44;3.20;88.80
26589;DHT22;14235;48.532;8.722;2023-04-15T04:34:10;3.10;89.00
26589;DHT22;14235;48.532;8.722;2023-04-15T04:36:35;3.10;89.10
26589;DHT22;14235;48.532;8.722;2023-04-15T04:39:01;3.10;89.60
26589;DHT22;14235;48.532;8.722;2023-04-15T04:41:27;3.10;89.50
26589;DHT22;14235;48.532;8.722;2023-04-15T04:43:52;3.10;89.00
26589;DHT22;14235;48.532;8.722;2023-04-15T04:46:18;3.10;89.30
26589;DHT22;14235;48.532;8.722;2023-04-15T04:48:43;3.00;88.70
26589;DHT22;14235;48.532;8.722;2023-04-15T04:51:10;3.00;89.20
26589;DHT22;14235;48.532;8.722;2023-04-15T04:53:35;2.90;89.70
26589;DHT22;14235;48.532;8.722;2023-04-15T04:56:02;2.90;89.80
26589;DHT22;14235;48.532;8.722;2023-04-15T04:58:28;2.80;90.20
26589;DHT22;14235;48.532;8.722;2023-04-15T05:00:53;2.90;90.50
26589;DHT22;14235;48.532;8.722;2023-04-15T05:03:19;2.80;90.10
26589;DHT22;14235;48.532;8.722;2023-04-15T05:05:45;2.80;90.10
26589;DHT22;14235;48.532;8.722;2023-04-15T05:08:11;2.80;90.50
26589;DHT22;14235;48.532;8.722;2023-04-15T05:10:36;2.70;90.20
26589;DHT22;14235;48.532;8.722;2023-04-15T05:13:02;2.80;90.80
26589;DHT22;14235;48.532;8.722;2023-04-15T05:15:28;2.90;90.90
26589;DHT22;14235;48.532;8.722;2023-04-15T05:17:53;2.90;90.70
26589;DHT22;14235;48.532;8.722;2023-04-15T05:20:19;3.00;90.40
26589;DHT22;14235;48.532;8.722;2023-04-15T05:22:45;3.00;90.20
26589;DHT22;14235;48.532;8.722;2023-04-15T05:25:10;3.10;90.20
26589;DHT22;14235;48.532;8.722;2023-04-15T05:27:36;2.90;90.00
26589;DHT22;14235;48.532;8.722;2023-04-15T05:30:01;2.80;90.10
26589;DHT22;14235;48.532;8.722;2023-04-15T05:32:27;3.00;90.10
26589;DHT22;14235;48.532;8.722;2023-04-15T05:34:53;3.00;90.30
26589;DHT22;14235;48.532;8.722;2023-04-15T05:37:18;2.90;90.80
26589;DHT22;14235;48.532;8.722;2023-04-15T05:39:45;3.00;90.90
26589;DHT22;14235;48.532;8.722;2023-04-15T05:42:11;3.10;90.80
26589;DHT22;14235;48.532;8.722;2023-04-15T05:44:36;2.80;90.50
26589;DHT22;14235;48.532;8.722;2023-04-15T05:47:02;3.20;90.70
26589;DHT22;14235;48.532;8.722;2023-04-15T05:49:28;3.20;90.40
26589;DHT22;14235;48.532;8.722;2023-04-15T05:51:54;3.20;90.40
26589;DHT22;14235;48.532;8.722;2023-04-15T05:54:19;3.30;90.70
26589;DHT22;14235;48.532;8.722;2023-04-15T05:56:47;3.30;90.70
26589;DHT22;14235;48.532;8.722;2023-04-15T05:59:13;3.40;90.60
26589;DHT22;14235;48.532;8.722;2023-04-15T06:01:38;3.40;90.70
26589;DHT22;14235;48.532;8.722;2023-04-15T06:04:04;5.00;91.50
26589;DHT22;14235;48.532;8.722;2023-04-15T06:06:31;3.40;90.60
26589;DHT22;14235;48.532;8.722;2023-04-15T06:08:57;3.20;90.70
26589;DHT22;14235;48.532;8.722;2023-04-15T06:11:22;3.50;90.80
26589;DHT22;14235;48.532;8.722;2023-04-15T06:13:48;3.40;90.90
26589;DHT22;14235;48.532;8.722;2023-04-15T06:16:14;3.40;91.30
26589;DHT22;14235;48.532;8.722;2023-04-15T06:18:39;4.40;91.80
26589;DHT22;14235;48.532;8.722;2023-04-15T06:21:05;3.50;91.40
26589;DHT22;14235;48.532;8.722;2023-04-15T06:23:33;3.50;91.40
26589;DHT22;14235;48.532;8.722;2023-04-15T06:26:00;3.50;91.60
26589;DHT22;14235;48.532;8.722;2023-04-15T06:28:26;3.60;92.00
26589;DHT22;14235;48.532;8.722;2023-04-15T06:30:52;3.60;92.10
26589;DHT22;14235;48.532;8.722;2023-04-15T06:33:18;3.60;92.30
26589;DHT22;14235;48.532;8.722;2023-04-15T06:35:43;3.70;92.60
26589;DHT22;14235;48.532;8.722;2023-04-15T06:38:09;3.70;92.60
26589;DHT22;14235;48.532;8.722;2023-04-15T06:40:34;3.70;92.60
26589;DHT22;14235;48.532;8.722;2023-04-15T06:43:01;3.80;93.00
26589;DHT22;14235;48.532;8.722;2023-04-15T06:45:26;3.90;93.10
26589;DHT22;14235;48.532;8.722;2023-04-15T06:47:52;4.00;92.90
26589;DHT22;14235;48.532;8.722;2023-04-15T06:50:18;3.80;92.90
26589;DHT22;14235;48.532;8.722;2023-04-15T06:52:43;4.10;93.00
26589;DHT22;14235;48.532;8.722;2023-04-15T06:55:09;3.90;93.30
26589;DHT22;14235;48.532;8.722;2023-04-15T06:57:34;4.30;93.20
26589;DHT22;14235;48.532;8.722;2023-04-15T07:00:00;3.90;93.00
26589;DHT22;14235;48.532;8.722;2023-04-15T07:02:26;4.30;93.30
26589;DHT22;14235;48.532;8.722;2023-04-15T07:04:51;4.50;93.50
26589;DHT22;14235;48.532;8.722;2023-04-15T07:07:17;4.60;93.40
26589;DHT22;14235;48.532;8.722;2023-04-15T07:09:43;4.70;93.70
26589;DHT22;14235;48.532;8.722;2023-04-15T07:12:09;4.50;93.50
26589;DHT22;14235;48.532;8.722;2023-04-15T07:14:34;4.50;93.70
26589;DHT22;14235;48.532;8.722;2023-04-15T07:17:00;4.90;94.10
26589;DHT22;14235;48.532;8.722;2023-04-15T07:19:26;4.70;94.10
26589;DHT22;14235;48.532;8.722;2023-04-15T07:21:52;5.00;94.40
26589;DHT22;14235;48.532;8.722;2023-04-15T07:24:17;5.00;94.10
26589;DHT22;14235;48.532;8.722;2023-04-15T07:26:45;5.10;94.00
26589;DHT22;14235;48.532;8.722;2023-04-15T07:29:10;5.10;94.00
26589;DHT22;14235;48.532;8.722;2023-04-15T07:31:36;5.40;94.10
26589;DHT22;14235;48.532;8.722;2023-04-15T07:34:02;5.40;93.70
26589;DHT22;14235;48.532;8.722;2023-04-15T07:36:29;5.30;94.00
26589;DHT22;14235;48.532;8.722;2023-04-15T07:38:55;5.50;94.50
26589;DHT22;14235;48.532;8.722;2023-04-15T07:41:21;5.60;94.40
26589;DHT22;14235;48.532;8.722;2023-04-15T07:43:47;5.30;94.20
26589;DHT22;14235;48.532;8.722;2023-04-15T07:46:13;5.70;94.60
26589;DHT22;14235;48.532;8.722;2023-04-15T07:48:39;7.30;95.40
26589;DHT22;14235;48.532;8.722;2023-04-15T07:51:05;6.20;95.10
26589;DHT22;14235;48.532;8.722;2023-04-15T07:53:31;5.90;94.90
26589;DHT22;14235;48.532;8.722;2023-04-15T07:55:57;5.70;94.90
26589;DHT22;14235;48.532;8.722;2023-04-15T07:58:23;6.00;95.00
26589;DHT22;14235;48.532;8.722;2023-04-15T08:00:49;7.10;95.10
26589;DHT22;14235;48.532;8.722;2023-04-15T08:03:15;6.10;94.50
26589;DHT22;14235;48.532;8.722;2023-04-15T08:05:41;6.20;94.60
26589;DHT22;14235;48.532;8.722;2023-04-15T08:08:07;5.90;94.60
26589;DHT22;14235;48.532;8.722;2023-04-15T08:10:33;8.30;95.60
26589;DHT22;14235;48.532;8.722;2023-04-15T08:12:58;6.40;94.60
26589;DHT22;14235;48.532;8.722;2023-04-15T08:15:25;6.40;94.60
26589;DHT22;14235;48.532;8.722;2023-04-15T08:17:50;6.50;94.60
26589;DHT22;14235;48.532;8.722;2023-04-15T08:20:16;6.50;94.30
26589;DHT22;14235;48.532;8.722;2023-04-15T08:22:42;6.20;94.60
26589;DHT22;14235;48.532;8.722;2023-04-15T08:25:07;6.70;94.60
26589;DHT22;14235;48.532;8.722;2023-04-15T08:27:34;6.70;94.60
26589;DHT22;14235;48.532;8.722;2023-04-15T08:30:00;6.30;94.20
26589;DHT22;14235;48.532;8.722;2023-04-15T08:32:26;6.60;94.10
26589;DHT22;14235;48.532;8.722;2023-04-15T08:34:51;6.60;94.30
26589;DHT22;14235;48.532;8.722;2023-04-15T08:37:17;6.80;94.40
26589;DHT22;14235;48.532;8.722;2023-04-15T08:39:43;6.70;94.60
26589;DHT22;14235;48.532;8.722;2023-04-15T08:42:16;7.00;94.80
26589;DHT22;14235;48.532;8.722;2023-04-15T08:44:42;7.50;95.00
26589;DHT22;14235;48.532;8.722;2023-04-15T08:47:12;7.50;94.30
26589;DHT22;14235;48.532;8.722;2023-04-15T08:49:39;7.40;93.90
26589;DHT22;14235;48.532;8.722;2023-04-15T08:52:07;7.30;93.80
26589;DHT22;14235;48.532;8.722;2023-04-15T08:54:34;7.60;94.40
26589;DHT22;14235;48.532;8.722;2023-04-15T08:56:59;8.00;95.30
26589;DHT22;14235;48.532;8.722;2023-04-15T08:59:27;7.90;95.40
26589;DHT22;14235;48.532;8.722;2023-04-15T09:01:55;8.00;95.60
26589;DHT22;14235;48.532;8.722;2023-04-15T09:04:21;8.40;96.20
26589;DHT22;14235;48.532;8.722;2023-04-15T09:06:47;8.00;96.10
26589;DHT22;14235;48.532;8.722;2023-04-15T09:09:12;8.10;96.20
26589;DHT22;14235;48.532;8.722;2023-04-15T09:11:38;8.20;95.90
26589;DHT22;14235;48.532;8.722;2023-04-15T09:14:04;8.20;95.90
26589;DHT22;14235;48.532;8.722;2023-04-15T09:16:30;8.30;96.20
26589;DHT22;14235;48.532;8.722;2023-04-15T09:18:56;8.30;96.20
26589;DHT22;14235;48.532;8.722;2023-04-15T09:21:22;8.30;95.70
26589;DHT22;14235;48.532;8.722;2023-04-15T09:23:58;8.50;95.40
26589;DHT22;14235;48.532;8.722;2023-04-15T09:26:35;8.70;95.50
26589;DHT22;14235;48.532;8.722;2023-04-15T09:29:11;8.70;97.50
26589;DHT22;14235;48.532;8.722;2023-04-15T09:31:40;8.80;95.70
26589;DHT22;14235;48.532;8.722;2023-04-15T09:34:06;8.70;95.70
26589;DHT22;14235;48.532;8.722;2023-04-15T09:36:52;9.00;96.40
26589;DHT22;14235;48.532;8.722;2023-04-15T09:39:18;9.30;96.40
26589;DHT22;14235;48.532;8.722;2023-04-15T09:41:43;9.30;95.80
26589;DHT22;14235;48.532;8.722;2023-04-15T09:44:26;9.20;94.60
26589;DHT22;14235;48.532;8.722;2023-04-15T09:46:51;9.20;94.80
26589;DHT22;14235;48.532;8.722;2023-04-15T09:49:17;9.70;95.20
26589;DHT22;14235;48.532;8.722;2023-04-15T09:51:43;9.40;96.00
26589;DHT22;14235;48.532;8.722;2023-04-15T09:56:37;9.60;86.60
26589;DHT22;14235;48.532;8.722;2023-04-15T09:59:09;9.80;87.10
26589;DHT22;14235;48.532;8.722;2023-04-15T10:01:35;9.70;84.10
26589;DHT22;14235;48.532;8.722;2023-04-15T10:04:05;9.90;83.00
26589;DHT22;14235;48.532;8.722;2023-04-15T10:06:31;10.10;83.40
26589;DHT22;14235;48.532;8.722;2023-04-15T10:08:57;10.10;82.60
26589;DHT22;14235;48.532;8.722;2023-04-15T10:11:24;10.00;81.30
26589;DHT22;14235;48.532;8.722;2023-04-15T10:13:53;10.40;84.40
26589;DHT22;14235;48.532;8.722;2023-04-15T10:16:20;10.60;80.90
26589;DHT22;14235;48.532;8.722;2023-04-15T10:18:52;10.30;80.50
26589;DHT22;14235;48.532;8.722;2023-04-15T10:21:20;10.60;82.60
26589;DHT22;14235;48.532;8.722;2023-04-15T10:23:48;10.50;83.70
26589;DHT22;14235;48.532;8.722;2023-04-15T10:26:15;10.70;82.40
26589;DHT22;14235;48.532;8.722;2023-04-15T10:28:42;10.80;81.20
26589;DHT22;14235;48.532;8.722;2023-04-15T10:31:11;10.90;81.70
26589;DHT22;14235;48.532;8.722;2023-04-15T10:33:38;11.20;81.60
26589;DHT22;14235;48.532;8.722;2023-04-15T10:36:05;11.10;71.30
26589;DHT22;14235;48.532;8.722;2023-04-15T10:38:42;11.00;71.70
26589;DHT22;14235;48.532;8.722;2023-04-15T10:43:52;11.40;66.70
26589;DHT22;14235;48.532;8.722;2023-04-15T10:46:34;11.20;65.30
26589;DHT22;14235;48.532;8.722;2023-04-15T10:49:26;11.30;65.20
26589;DHT22;14235;48.532;8.722;2023-04-15T10:51:56;11.40;62.30
26589;DHT22;14235;48.532;8.722;2023-04-15T10:59:35;11.30;60.60
26589;DHT22;14235;48.532;8.722;2023-04-15T11:02:05;11.40;61.00
26589;DHT22;14235;48.532;8.722;2023-04-15T11:04:56;11.80;61.20
26589;DHT22;14235;48.532;8.722;2023-04-15T11:12:39;11.70;59.20
26589;DHT22;14235;48.532;8.722;2023-04-15T11:17:50;11.60;58.00
26589;DHT22;14235;48.532;8.722;2023-04-15T11:20:16;11.50;57.40
26589;DHT22;14235;48.532;8.722;2023-04-15T11:22:50;11.60;58.10
26589;DHT22;14235;48.532;8.722;2023-04-15T11:25:28;11.60;58.90
26589;DHT22;14235;48.532;8.722;2023-04-15T11:27:54;11.60;58.90
26589;DHT22;14235;48.532;8.722;2023-04-15T11:30:23;11.70;57.90
26589;DHT22;14235;48.532;8.722;2023-04-15T11:32:50;11.70;57.80
26589;DHT22;14235;48.532;8.722;2023-04-15T11:35:16;11.70;57.40
26589;DHT22;14235;48.532;8.722;2023-04-15T11:37:46;11.70;57.00
26589;DHT22;14235;48.532;8.722;2023-04-15T11:40:12;11.80;57.70
26589;DHT22;14235;48.532;8.722;2023-04-15T11:42:39;11.80;58.30
26589;DHT22;14235;48.532;8.722;2023-04-15T11:45:10;12.20;58.60
26589;DHT22;14235;48.532;8.722;2023-04-15T11:47:36;12.20;59.10
26589;DHT22;14235;48.532;8.722;2023-04-15T11:50:18;12.30;58.90
26589;DHT22;14235;48.532;8.722;2023-04-15T11:53:01;12.40;59.50
26589;DHT22;14235;48.532;8.722;2023-04-15T11:55:27;12.50;59.10
26589;DHT22;14235;48.532;8.722;2023-04-15T11:58:20;12.50;60.10
26589;DHT22;14235;48.532;8.722;2023-04-15T12:03:25;12.60;60.40
26589;DHT22;14235;48.532;8.722;2023-04-15T12:06:05;12.70;59.90
26589;DHT22;14235;48.532;8.722;2023-04-15T12:16:42;12.90;59.30
26589;DHT22;14235;48.532;8.722;2023-04-15T12:19:13;12.80;60.00
26589;DHT22;14235;48.532;8.722;2023-04-15T12:21:43;13.00;61.50
26589;DHT22;14235;48.532;8.722;2023-04-15T12:24:10;13.00;62.10
26589;DHT22;14235;48.532;8.722;2023-04-15T12:29:09;13.20;59.50
26589;DHT22;14235;48.532;8.722;2023-04-15T12:31:35;13.30;59.60
26589;DHT22;14235;48.532;8.722;2023-04-15T12:34:02;13.40;59.40
26589;DHT22;14235;48.532;8.722;2023-04-15T12:36:29;13.30;59.90
26589;DHT22;14235;48.532;8.722;2023-04-15T12:39:00;13.40;59.80
26589;DHT22;14235;48.532;8.722;2023-04-15T12:41:26;13.50;59.30
26589;DHT22;14235;48.532;8.722;2023-04-15T12:43:52;13.50;58.60
26589;DHT22;14235;48.532;8.722;2023-04-15T12:46:18;13.60;57.40
26589;DHT22;14235;48.532;8.722;2023-04-15T12:48:44;13.50;59.00
26589;DHT22;14235;48.532;8.722;2023-04-15T12:51:10;13.60;58.00
26589;DHT22;14235;48.532;8.722;2023-04-15T12:53:36;13.80;58.20
26589;DHT22;14235;48.532;8.722;2023-04-15T12:56:01;13.70;56.60
26589;DHT22;14235;48.532;8.722;2023-04-15T12:58:27;13.70;55.70
26589;DHT22;14235;48.532;8.722;2023-04-15T13:00:53;13.80;55.60
26589;DHT22;14235;48.532;8.722;2023-04-15T13:03:18;14.10;55.80
26589;DHT22;14235;48.532;8.722;2023-04-15T13:05:44;14.20;57.20
26589;DHT22;14235;48.532;8.722;2023-04-15T13:08:09;14.40;56.70
26589;DHT22;14235;48.532;8.722;2023-04-15T13:10:35;14.40;57.00
26589;DHT22;14235;48.532;8.722;2023-04-15T13:13:01;14.60;54.90
26589;DHT22;14235;48.532;8.722;2023-04-15T13:15:28;14.60;53.40
26589;DHT22;14235;48.532;8.722;2023-04-15T13:17:53;14.60;55.90
26589;DHT22;14235;48.532;8.722;2023-04-15T13:20:19;14.80;58.50
26589;DHT22;14235;48.532;8.722;2023-04-15T13:22:44;14.80;56.20
26589;DHT22;14235;48.532;8.722;2023-04-15T13:25:10;14.80;55.80
26589;DHT22;14235;48.532;8.722;2023-04-15T13:27:36;14.80;54.30
26589;DHT22;14235;48.532;8.722;2023-04-15T13:30:03;14.60;54.50
26589;DHT22;14235;48.532;8.722;2023-04-15T13:32:29;14.50;53.80
26589;DHT22;14235;48.532;8.722;2023-04-15T13:34:55;14.60;54.90
26589;DHT22;14235;48.532;8.722;2023-04-15T13:37:25;14.50;56.00
26589;DHT22;14235;48.532;8.722;2023-04-15T13:39:52;14.00;56.90
26589;DHT22;14235;48.532;8.722;2023-04-15T13:42:18;14.00;56.50
26589;DHT22;14235;48.532;8.722;2023-04-15T13:44:43;13.90;56.70
26589;DHT22;14235;48.532;8.722;2023-04-15T13:47:09;13.80;57.20
26589;DHT22;14235;48.532;8.722;2023-04-15T13:49:34;13.80;58.00
26589;DHT22;14235;48.532;8.722;2023-04-15T13:52:00;13.60;56.30
26589;DHT22;14235;48.532;8.722;2023-04-15T13:54:25;13.70;57.20
26589;DHT22;14235;48.532;8.722;2023-04-15T13:56:51;13.40;57.70
26589;DHT22;14235;48.532;8.722;2023-04-15T13:59:16;13.50;58.50
26589;DHT22;14235;48.532;8.722;2023-04-15T14:01:42;13.60;59.60
26589;DHT22;14235;48.532;8.722;2023-04-15T14:04:09;13.70;59.30
26589;DHT22;14235;48.532;8.722;2023-04-15T14:06:34;13.80;58.50
26589;DHT22;14235;48.532;8.722;2023-04-15T14:09:00;13.70;58.50
26589;DHT22;14235;48.532;8.722;2023-04-15T14:11:26;13.60;58.20
26589;DHT22;14235;48.532;8.722;2023-04-15T14:13:51;13.50;58.50
26589;DHT22;14235;48.532;8.722;2023-04-15T14:16:17;13.50;59.50
26589;DHT22;14235;48.532;8.722;2023-04-15T14:18:43;13.30;59.40
26589;DHT22;14235;48.532;8.722;2023-04-15T14:21:09;13.40;59.10
26589;DHT22;14235;48.532;8.722;2023-04-15T14:23:35;13.20;55.80
26589;DHT22;14235;48.532;8.722;2023-04-15T14:26:00;13.10;56.40
26589;DHT22;14235;48.532;8.722;2023-04-15T14:28:26;13.10;56.90
26589;DHT22;14235;48.532;8.722;2023-04-15T14:30:51;13.10;57.80
26589;DHT22;14235;48.532;8.722;2023-04-15T14:33:18;13.10;58.20
26589;DHT22;14235;48.532;8.722;2023-04-15T14:35:43;13.10;58.40
26589;DHT22;14235;48.532;8.722;2023-04-15T14:38:09;13.20;58.70
26589;DHT22;14235;48.532;8.722;2023-04-15T14:40:35;13.00;59.30
26589;DHT22;14235;48.532;8.722;2023-04-15T14:43:02;13.00;59.80
26589;DHT22;14235;48.532;8.722;2023-04-15T14:45:28;12.90;60.40
26589;DHT22;14235;48.532;8.722;2023-04-15T14:47:54;13.20;59.30
26589;DHT22;14235;48.532;8.722;2023-04-15T14:50:20;12.90;58.70
26589;DHT22;14235;48.532;8.722;2023-04-15T14:52:46;12.90;58.40
26589;DHT22;14235;48.532;8.722;2023-04-15T14:55:12;12.90;58.40
26589;DHT22;14235;48.532;8.722;2023-04-15T15:00:06;12.80;49.90
26589;DHT22;14235;48.532;8.722;2023-04-15T15:02:33;12.80;50.00
26589;DHT22;14235;48.532;8.722;2023-04-15T15:05:00;12.60;50.30
26589;DHT22;14235;48.532;8.722;2023-04-15T15:07:26;12.70;50.50
26589;DHT22;14235;48.532;8.722;2023-04-15T15:09:52;12.70;50.60
26589;DHT22;14235;48.532;8.722;2023-04-15T15:12:18;12.50;51.40
26589;DHT22;14235;48.532;8.722;2023-04-15T15:14:43;12.50;51.70
26589;DHT22;14235;48.532;8.722;2023-04-15T15:17:09;12.40;52.60
26589;DHT22;14235;48.532;8.722;2023-04-15T15:19:35;12.40;52.70
26589;DHT22;14235;48.532;8.722;2023-04-15T15:22:01;12.20;52.50
26589;DHT22;14235;48.532;8.722;2023-04-15T15:24:27;12.30;52.60
26589;DHT22;14235;48.532;8.722;2023-04-15T15:26:52;12.20;53.30
26589;DHT22;14235;48.532;8.722;2023-04-15T15:29:18;12.20;53.90
26589;DHT22;14235;48.532;8.722;2023-04-15T15:31:44;12.10;54.20
26589;DHT22;14235;48.532;8.722;2023-04-15T15:34:09;12.00;54.60
26589;DHT22;14235;48.532;8.722;2023-04-15T15:36:35;11.90;55.10
26589;DHT22;14235;48.532;8.722;2023-04-15T15:39:00;12.10;55.80
26589;DHT22;14235;48.532;8.722;2023-04-15T15:41:26;12.10;56.60
26589;DHT22;14235;48.532;8.722;2023-04-15T15:43:52;12.10;57.20
26589;DHT22;14235;48.532;8.722;2023-04-15T15:46:18;12.10;57.90
26589;DHT22;14235;48.532;8.722;2023-04-15T15:48:44;12.10;58.40
26589;DHT22;14235;48.532;8.722;2023-04-15T15:51:10;12.10;58.80
26589;DHT22;14235;48.532;8.722;2023-04-15T15:53:35;12.00;59.10
26589;DHT22;14235;48.532;8.722;2023-04-15T15:56:01;12.00;59.40
26589;DHT22;14235;48.532;8.722;2023-04-15T15:58:29;12.00;59.80
26589;DHT22;14235;48.532;8.722;2023-04-15T16:00:54;12.00;60.50
26589;DHT22;14235;48.532;8.722;2023-04-15T16:03:21;12.00;61.00
26589;DHT22;14235;48.532;8.722;2023-04-15T16:05:46;12.00;61.60
26589;DHT22;14235;48.532;8.722;2023-04-15T16:08:12;12.10;62.10
26589;DHT22;14235;48.532;8.722;2023-04-15T16:10:37;12.00;62.50
26589;DHT22;14235;48.532;8.722;2023-04-15T16:13:03;12.00;63.40